createdAt,value
2017-09-30T00:01:42.813Z,34.60
2017-09-30T00:04:11.006Z,35.93
2017-09-30T00:06:38.423Z,39.43
2017-09-30T00:09:05.855Z,35.90
2017-09-30T00:11:33.384Z,42.70
2017-09-30T00:14:00.805Z,38.70
2017-09-30T00:16:29.002Z,42.53
2017-09-30T00:18:56.480Z,44.37
2017-09-30T00:21:23.870Z,46.57
2017-09-30T00:23:51.290Z,41.60
2017-09-30T00:26:18.711Z,43.60
2017-09-30T00:28:46.919Z,45.37
2017-09-30T00:31:14.308Z,39.93
2017-09-30T00:33:41.733Z,51.30
2017-09-30T00:36:09.145Z,47.80
2017-09-30T00:38:37.330Z,44.00
2017-09-30T00:41:04.749Z,40.73
2017-09-30T00:43:32.167Z,40.47
2017-09-30T00:45:59.630Z,38.30
2017-09-30T00:48:27.085Z,43.80
2017-09-30T00:50:54.494Z,42.43
2017-09-30T00:53:22.673Z,42.40
2017-09-30T00:55:50.876Z,40.30
2017-09-30T00:58:18.343Z,44.77
2017-09-30T01:00:45.774Z,41.10
2017-09-30T01:03:13.948Z,39.63
2017-09-30T01:05:41.371Z,42.07
2017-09-30T01:08:08.789Z,44.70
2017-09-30T01:10:36.248Z,36.90
2017-09-30T01:13:03.634Z,39.97
2017-09-30T01:15:31.059Z,48.23
2017-09-30T01:17:58.511Z,41.27
2017-09-30T01:20:25.967Z,40.87
2017-09-30T01:22:53.389Z,41.77
2017-09-30T01:25:21.575Z,43.10
2017-09-30T01:27:49.779Z,42.07
2017-09-30T01:30:17.190Z,40.07
2017-09-30T01:32:45.403Z,36.77
2017-09-30T01:35:12.817Z,37.07
2017-09-30T01:37:41.020Z,36.33
2017-09-30T01:40:08.421Z,33.57
2017-09-30T01:42:35.862Z,37.80
2017-09-30T01:45:03.270Z,40.77
2017-09-30T01:47:31.450Z,37.30
2017-09-30T01:49:58.869Z,38.97
2017-09-30T01:52:26.286Z,34.67
2017-09-30T01:54:53.749Z,41.07
2017-09-30T01:57:21.207Z,43.87
2017-09-30T01:59:48.614Z,47.20
2017-09-30T02:02:16.802Z,46.03
2017-09-30T02:04:45.010Z,45.50
2017-09-30T02:07:12.470Z,47.43
2017-09-30T02:09:39.896Z,46.37
2017-09-30T02:12:07.318Z,50.17
2017-09-30T02:14:34.746Z,50.00
2017-09-30T02:17:02.162Z,42.60
2017-09-30T02:19:29.585Z,44.63
2017-09-30T02:21:57.106Z,42.40
2017-09-30T02:24:24.538Z,40.67
2017-09-30T02:26:51.953Z,45.90
2017-09-30T02:29:19.373Z,43.53
2017-09-30T02:31:46.797Z,45.77
2017-09-30T02:34:15.005Z,45.20
2017-09-30T02:36:42.411Z,43.43
2017-09-30T02:39:10.599Z,42.80
2017-09-30T02:41:38.790Z,55.33
2017-09-30T02:44:06.213Z,58.23
2017-09-30T02:59:37.106Z,53.70
2017-09-30T03:02:04.522Z,52.00
2017-09-30T03:04:31.942Z,52.60
2017-09-30T03:07:00.870Z,41.50
2017-09-30T03:09:28.281Z,48.80
2017-09-30T03:11:55.807Z,47.47
2017-09-30T03:14:23.266Z,44.60
2017-09-30T03:16:50.685Z,44.97
2017-09-30T03:19:18.890Z,47.20
2017-09-30T03:21:46.347Z,45.30
2017-09-30T03:24:13.809Z,45.30
2017-09-30T03:26:41.260Z,51.10
2017-09-30T03:29:08.674Z,48.43
2017-09-30T03:31:36.092Z,45.00
2017-09-30T03:34:03.534Z,43.70
2017-09-30T03:36:30.958Z,44.43
2017-09-30T03:38:59.145Z,41.07
2017-09-30T03:41:26.578Z,43.20
2017-09-30T03:43:54.772Z,47.40
2017-09-30T03:46:22.217Z,48.10
2017-09-30T03:48:50.397Z,47.53
2017-09-30T03:51:17.814Z,42.77
2017-09-30T03:53:45.240Z,42.93
2017-09-30T03:56:12.690Z,42.80
2017-09-30T03:58:40.147Z,42.80
2017-09-30T04:01:07.557Z,38.37
2017-09-30T04:03:34.982Z,47.70
2017-09-30T04:06:02.626Z,46.47
2017-09-30T04:08:30.022Z,42.23
2017-09-30T04:10:58.203Z,49.30
2017-09-30T04:13:25.622Z,49.83
2017-09-30T04:15:53.067Z,41.03
2017-09-30T04:18:20.461Z,42.03
2017-09-30T04:20:47.891Z,38.33
2017-09-30T04:23:15.318Z,50.20
2017-09-30T04:25:42.729Z,54.30
2017-09-30T04:28:10.150Z,69.17
2017-09-30T04:30:37.562Z,73.40
2017-09-30T04:33:05.753Z,78.30
2017-09-30T04:35:33.209Z,72.83
2017-09-30T04:38:00.629Z,71.00
2017-09-30T04:40:28.049Z,72.00
2017-09-30T04:42:55.486Z,81.83
2017-09-30T04:45:22.905Z,79.13
2017-09-30T04:47:51.085Z,80.30
2017-09-30T04:50:19.274Z,57.87
2017-09-30T04:52:47.477Z,52.83
2017-09-30T04:55:15.709Z,46.93
2017-09-30T04:57:43.917Z,44.53
2017-09-30T05:00:11.333Z,42.23
2017-09-30T05:02:39.518Z,52.03
2017-09-30T05:05:06.945Z,50.67
2017-09-30T05:07:34.368Z,44.13
2017-09-30T05:10:01.789Z,49.03
2017-09-30T05:12:30.004Z,45.43
2017-09-30T05:14:57.401Z,52.07
2017-09-30T05:17:24.917Z,53.20
2017-09-30T05:19:52.362Z,53.13
2017-09-30T05:22:19.786Z,49.30
2017-09-30T05:24:47.973Z,54.57
2017-09-30T05:27:15.463Z,51.67
2017-09-30T05:29:42.885Z,60.73
2017-09-30T05:32:11.093Z,68.93
2017-09-30T05:34:38.496Z,57.73
2017-09-30T05:37:06.108Z,59.87
2017-09-30T05:39:33.514Z,64.80
2017-09-30T05:42:01.023Z,61.87
2017-09-30T05:44:28.429Z,67.80
2017-09-30T05:46:55.854Z,73.87
2017-09-30T05:49:23.274Z,69.97
2017-09-30T05:51:50.689Z,63.03
2017-09-30T05:54:18.121Z,66.17
2017-09-30T05:56:45.560Z,63.23
2017-09-30T05:59:12.956Z,69.50
2017-09-30T06:01:40.382Z,72.67
2017-09-30T06:04:07.801Z,65.20
2017-09-30T06:06:35.285Z,61.00
2017-09-30T06:09:02.725Z,63.13
2017-09-30T06:11:30.202Z,68.10
2017-09-30T06:13:57.633Z,77.87
2017-09-30T06:16:25.050Z,71.77
2017-09-30T06:18:52.470Z,65.63
2017-09-30T06:21:19.897Z,60.50
2017-09-30T06:23:47.370Z,52.10
2017-09-30T06:26:14.838Z,54.67
2017-09-30T06:28:42.253Z,52.63
2017-09-30T06:31:10.468Z,55.07
2017-09-30T06:33:37.921Z,45.50
2017-09-30T06:36:05.346Z,43.40
2017-09-30T06:38:33.526Z,39.70
2017-09-30T06:41:00.950Z,42.60
2017-09-30T06:43:28.368Z,41.43
2017-09-30T06:45:55.790Z,39.53
2017-09-30T06:48:23.973Z,34.10
2017-09-30T06:50:51.392Z,40.70
2017-09-30T06:53:18.814Z,31.90
2017-09-30T06:55:46.237Z,33.87
2017-09-30T06:58:13.667Z,31.73
2017-09-30T07:00:41.110Z,32.10
2017-09-30T07:03:08.515Z,33.73
2017-09-30T07:05:35.936Z,25.90
2017-09-30T07:08:03.358Z,29.87
2017-09-30T07:10:30.799Z,28.07
2017-09-30T07:12:58.222Z,26.03
2017-09-30T07:15:26.397Z,30.60
2017-09-30T07:17:54.604Z,29.17
2017-09-30T07:20:22.043Z,27.60
2017-09-30T07:22:50.243Z,29.57
2017-09-30T07:25:17.658Z,28.20
2017-09-30T07:27:45.842Z,29.50
2017-09-30T07:30:13.298Z,30.00
2017-09-30T07:32:40.722Z,31.43
2017-09-30T07:35:08.143Z,27.80
2017-09-30T07:37:35.566Z,27.07
2017-09-30T07:40:02.995Z,30.80
2017-09-30T07:42:30.410Z,28.27
2017-09-30T07:44:57.838Z,32.23
2017-09-30T07:47:25.262Z,30.97
2017-09-30T07:49:52.710Z,26.77
2017-09-30T07:52:20.134Z,30.20
2017-09-30T07:54:47.556Z,34.07
2017-09-30T07:57:15.748Z,34.23
2017-09-30T07:59:43.171Z,33.03
2017-09-30T08:02:10.581Z,30.20
2017-09-30T08:04:38.004Z,31.73
2017-09-30T08:07:05.430Z,36.60
2017-09-30T08:09:32.851Z,29.70
2017-09-30T08:12:00.279Z,29.73
2017-09-30T08:14:27.706Z,32.07
2017-09-30T08:16:56.018Z,32.17
2017-09-30T08:19:23.442Z,30.17
2017-09-30T08:21:51.637Z,29.57
2017-09-30T08:24:19.066Z,33.27
2017-09-30T08:26:46.489Z,30.47
2017-09-30T08:29:13.902Z,30.10
2017-09-30T08:31:41.329Z,37.80
2017-09-30T08:34:08.759Z,31.83
2017-09-30T08:36:36.178Z,31.33
2017-09-30T08:39:03.594Z,28.13
2017-09-30T08:41:31.017Z,29.30
2017-09-30T08:43:58.443Z,36.03
2017-09-30T08:46:25.861Z,31.53
2017-09-30T08:48:53.280Z,32.80
2017-09-30T08:51:20.691Z,29.10
2017-09-30T08:53:48.881Z,37.50
2017-09-30T08:56:16.291Z,26.30
2017-09-30T08:58:43.718Z,28.47
2017-09-30T09:01:11.133Z,24.47
2017-09-30T09:03:38.557Z,30.37
2017-09-30T09:06:05.977Z,26.37
2017-09-30T09:08:33.390Z,24.70
2017-09-30T09:11:00.811Z,23.33
2017-09-30T09:13:28.229Z,25.70
2017-09-30T09:15:56.414Z,26.20
2017-09-30T09:18:23.837Z,24.43
2017-09-30T09:20:51.258Z,26.77
2017-09-30T09:23:18.676Z,25.40
2017-09-30T09:25:46.093Z,23.63
2017-09-30T09:28:13.513Z,22.27
2017-09-30T09:30:40.929Z,23.83
2017-09-30T09:33:09.118Z,23.40
2017-09-30T09:35:36.549Z,25.63
2017-09-30T09:38:03.969Z,21.00
2017-09-30T09:40:31.385Z,24.03
2017-09-30T09:42:58.810Z,23.70
2017-09-30T09:45:26.328Z,22.33
2017-09-30T09:47:53.729Z,20.67
2017-09-30T09:50:21.154Z,19.93
2017-09-30T09:52:48.583Z,26.33
2017-09-30T09:55:15.993Z,26.00
2017-09-30T09:57:43.419Z,23.37
2017-09-30T10:00:10.837Z,24.03
2017-09-30T10:02:39.038Z,25.17
2017-09-30T10:05:06.468Z,29.60
2017-09-30T10:07:34.649Z,32.03
2017-09-30T10:10:02.073Z,28.80
2017-09-30T10:12:29.493Z,25.47
2017-09-30T10:14:56.923Z,27.77
2017-09-30T10:17:24.347Z,25.60
2017-09-30T10:19:51.766Z,26.13
2017-09-30T10:22:19.181Z,22.00
2017-09-30T10:24:46.605Z,24.57
2017-09-30T10:27:14.012Z,22.27
2017-09-30T10:29:41.446Z,24.53
2017-09-30T10:32:08.872Z,23.43
2017-09-30T10:34:36.284Z,23.70
2017-09-30T10:37:03.706Z,23.47
2017-09-30T10:39:31.920Z,21.30
2017-09-30T10:41:59.321Z,25.00
2017-09-30T10:44:26.756Z,22.40
2017-09-30T10:46:54.174Z,23.23
2017-09-30T10:49:21.588Z,19.07
2017-09-30T10:51:49.781Z,17.77
2017-09-30T10:54:17.961Z,17.60
2017-09-30T10:56:45.386Z,15.17
2017-09-30T10:59:12.809Z,16.83
2017-09-30T11:01:40.227Z,15.50
2017-09-30T11:04:07.646Z,17.10
2017-09-30T11:06:35.073Z,15.80
2017-09-30T11:09:02.486Z,17.23
2017-09-30T11:11:30.699Z,17.03
2017-09-30T11:13:58.099Z,18.67
2017-09-30T11:16:25.526Z,14.30
2017-09-30T11:18:52.941Z,13.00
2017-09-30T11:21:20.366Z,17.33
2017-09-30T11:23:48.939Z,13.60
2017-09-30T11:26:16.367Z,14.63
2017-09-30T11:28:43.782Z,15.97
2017-09-30T11:31:11.966Z,13.70
2017-09-30T11:33:39.381Z,16.23
2017-09-30T11:36:06.833Z,16.47
2017-09-30T11:38:34.322Z,14.57
2017-09-30T11:41:01.752Z,14.90
2017-09-30T11:43:29.192Z,12.53
2017-09-30T11:45:56.585Z,13.50
2017-09-30T11:48:24.773Z,17.23
2017-09-30T11:50:52.958Z,13.80
2017-09-30T11:53:20.382Z,13.93
2017-09-30T11:55:47.802Z,15.70
2017-09-30T11:58:15.230Z,14.60
2017-09-30T12:00:42.650Z,13.87
2017-09-30T12:03:10.073Z,14.93
2017-09-30T12:05:37.499Z,14.40
2017-09-30T12:08:04.910Z,15.73
2017-09-30T12:10:32.334Z,13.90
2017-09-30T12:12:59.754Z,13.93
2017-09-30T12:15:27.942Z,15.50
2017-09-30T12:17:55.359Z,13.33
2017-09-30T12:20:22.783Z,11.57
2017-09-30T12:22:50.202Z,23.57
2017-09-30T12:25:17.615Z,13.80
2017-09-30T12:27:45.035Z,13.30
2017-09-30T12:30:12.462Z,7.77
2017-09-30T12:32:40.639Z,10.30
2017-09-30T12:35:08.834Z,8.60
2017-09-30T12:37:36.242Z,8.23
2017-09-30T12:40:03.682Z,7.90
2017-09-30T12:42:31.089Z,8.57
2017-09-30T12:44:58.501Z,7.07
2017-09-30T12:47:26.875Z,7.03
2017-09-30T12:49:54.296Z,8.87
2017-09-30T12:52:21.709Z,10.00
2017-09-30T12:54:49.889Z,8.80
2017-09-30T12:57:18.074Z,7.50
2017-09-30T12:59:46.254Z,7.80
2017-09-30T13:02:13.672Z,8.20
2017-09-30T13:04:41.096Z,8.73
2017-09-30T13:07:08.514Z,8.80
2017-09-30T13:09:36.703Z,12.53
2017-09-30T13:12:04.110Z,9.73
2017-09-30T13:14:31.561Z,7.13
2017-09-30T13:16:58.982Z,7.93
2017-09-30T13:19:26.400Z,8.70
2017-09-30T13:21:54.592Z,8.67
2017-09-30T13:24:22.770Z,9.33
2017-09-30T13:26:50.178Z,10.97
2017-09-30T13:29:17.598Z,8.20
2017-09-30T13:31:46.153Z,9.90
2017-09-30T13:34:14.347Z,9.93
2017-09-30T13:36:41.763Z,10.97
2017-09-30T13:39:09.185Z,8.00
2017-09-30T13:41:36.601Z,9.07
2017-09-30T13:44:04.911Z,10.77
2017-09-30T13:46:32.331Z,11.63
2017-09-30T13:49:00.514Z,7.43
2017-09-30T13:51:27.926Z,5.73
2017-09-30T13:53:55.350Z,3.03
2017-09-30T13:56:22.770Z,1.80
2017-09-30T13:58:50.943Z,2.93
2017-09-30T14:01:19.117Z,1.83
2017-09-30T14:03:47.302Z,1.40
2017-09-30T14:06:14.722Z,2.00
2017-09-30T14:08:42.136Z,1.80
2017-09-30T14:11:09.556Z,1.40
2017-09-30T14:13:37.731Z,1.87
2017-09-30T14:16:05.922Z,3.10
2017-09-30T14:18:33.334Z,2.50
2017-09-30T14:21:00.756Z,2.73
2017-09-30T14:23:28.167Z,3.10
2017-09-30T14:25:56.358Z,4.90
2017-09-30T14:28:23.769Z,3.80
2017-09-30T14:30:51.295Z,4.27
2017-09-30T14:33:18.702Z,4.33
2017-09-30T14:35:46.121Z,5.17
2017-09-30T14:38:13.534Z,3.20
2017-09-30T14:40:41.718Z,3.20
2017-09-30T14:43:09.129Z,4.33
2017-09-30T14:45:36.560Z,6.30
2017-09-30T14:48:03.966Z,4.00
2017-09-30T14:50:32.149Z,7.70
2017-09-30T14:53:00.329Z,4.67
2017-09-30T14:55:27.736Z,4.43
2017-09-30T14:57:55.154Z,6.03
2017-09-30T15:00:22.560Z,9.20
2017-09-30T15:02:49.985Z,6.93
2017-09-30T15:05:17.398Z,6.33
2017-09-30T15:07:46.414Z,8.93
2017-09-30T15:10:13.822Z,6.23
2017-09-30T15:12:41.238Z,8.63
2017-09-30T15:15:08.648Z,4.17
2017-09-30T15:17:36.834Z,8.67
2017-09-30T15:20:05.018Z,6.57
2017-09-30T15:22:33.226Z,6.63
2017-09-30T15:25:00.633Z,4.30
2017-09-30T15:27:28.813Z,4.30
2017-09-30T15:29:56.991Z,3.60
2017-09-30T15:32:25.174Z,4.70
2017-09-30T15:34:52.589Z,3.17
2017-09-30T15:37:20.007Z,5.83
2017-09-30T15:39:47.435Z,3.97
2017-09-30T15:42:15.724Z,4.10
2017-09-30T15:44:43.129Z,4.03
2017-09-30T15:47:10.566Z,3.83
2017-09-30T15:49:37.973Z,3.70
2017-09-30T15:52:06.153Z,3.03
2017-09-30T15:54:34.341Z,2.90
2017-09-30T15:57:01.747Z,3.87
2017-09-30T15:59:29.178Z,3.80
2017-09-30T16:01:56.597Z,3.83
2017-09-30T16:04:24.769Z,3.40
2017-09-30T16:06:52.958Z,3.17
2017-09-30T16:09:20.366Z,3.73
2017-09-30T16:11:47.790Z,3.73
2017-09-30T16:14:15.193Z,2.40
2017-09-30T16:16:42.632Z,3.30
2017-09-30T16:19:10.038Z,2.00
2017-09-30T16:21:37.457Z,2.67
2017-09-30T16:24:04.872Z,3.33
2017-09-30T16:26:32.296Z,3.23
2017-09-30T16:29:00.486Z,3.30
2017-09-30T16:31:27.896Z,2.77
2017-09-30T16:33:55.314Z,2.90
2017-09-30T16:36:22.728Z,2.70
2017-09-30T16:38:50.909Z,3.10
2017-09-30T16:41:19.094Z,2.50
2017-09-30T16:43:46.516Z,4.80
2017-09-30T16:46:13.926Z,4.13
2017-09-30T16:48:41.346Z,3.13
2017-09-30T16:51:09.522Z,4.40
2017-09-30T16:53:37.706Z,4.50
2017-09-30T16:56:05.126Z,4.00
2017-09-30T16:58:32.546Z,4.70
2017-09-30T17:00:59.955Z,5.17
2017-09-30T17:03:28.134Z,3.17
2017-09-30T17:05:56.315Z,3.43
2017-09-30T17:08:24.494Z,3.40
2017-09-30T17:10:51.914Z,6.57
2017-09-30T17:13:19.332Z,3.50
2017-09-30T17:15:46.753Z,3.83
2017-09-30T17:18:14.966Z,6.50
2017-09-30T17:20:42.370Z,3.93
2017-09-30T17:23:09.782Z,4.97
2017-09-30T17:25:37.199Z,3.93
2017-09-30T17:28:05.376Z,4.90
2017-09-30T17:30:33.562Z,3.43
2017-09-30T17:33:00.970Z,4.07
2017-09-30T17:35:28.397Z,5.20
2017-09-30T17:37:55.822Z,6.50
2017-09-30T17:40:23.229Z,5.40
2017-09-30T17:42:50.650Z,4.43
2017-09-30T17:45:18.071Z,4.37
2017-09-30T17:47:46.262Z,5.20
2017-09-30T17:50:13.672Z,10.00
2017-09-30T17:52:41.096Z,4.80
2017-09-30T17:55:08.514Z,5.93
2017-09-30T17:57:36.697Z,7.20
2017-09-30T18:00:04.879Z,7.10
2017-09-30T18:02:32.290Z,4.37
2017-09-30T18:04:59.701Z,4.97
2017-09-30T18:07:27.125Z,5.77
2017-09-30T18:09:54.531Z,5.53
2017-09-30T18:12:21.945Z,6.40
2017-09-30T18:14:50.125Z,4.63
2017-09-30T18:17:37.891Z,5.10
2017-09-30T18:20:05.310Z,4.87
2017-09-30T18:22:33.496Z,5.13
2017-09-30T18:25:01.676Z,8.80
2017-09-30T18:27:29.082Z,5.63
2017-09-30T18:29:56.510Z,10.13
2017-09-30T18:32:23.917Z,8.33
2017-09-30T18:34:52.103Z,8.80
2017-09-30T18:37:20.282Z,9.60
2017-09-30T18:39:48.469Z,5.37
2017-09-30T18:42:15.881Z,6.00
2017-09-30T18:44:43.303Z,4.80
2017-09-30T18:47:10.716Z,10.33
2017-09-30T18:49:38.916Z,4.87
2017-09-30T18:52:06.314Z,6.47
2017-09-30T18:54:33.729Z,5.67
2017-09-30T18:57:01.141Z,5.10
2017-09-30T18:59:28.562Z,6.93
2017-09-30T19:01:55.978Z,5.80
2017-09-30T19:04:24.170Z,5.30
2017-09-30T19:06:51.594Z,7.03
2017-09-30T19:09:19.761Z,5.10
2017-09-30T19:11:47.949Z,5.40
2017-09-30T19:14:16.134Z,8.60
2017-09-30T19:16:43.669Z,4.90
2017-09-30T19:19:11.841Z,3.67
2017-09-30T19:21:40.923Z,8.53
2017-09-30T19:24:08.342Z,3.80
2017-09-30T19:26:35.762Z,4.67
2017-09-30T19:29:03.942Z,7.03
2017-09-30T19:31:32.136Z,4.37
2017-09-30T19:33:59.545Z,6.93
2017-09-30T19:36:26.949Z,4.77
2017-09-30T19:38:54.371Z,4.87
2017-09-30T19:41:22.550Z,8.30
2017-09-30T19:43:50.725Z,4.00
2017-09-30T19:46:18.910Z,7.63
2017-09-30T19:48:47.092Z,6.80
2017-09-30T19:51:14.498Z,4.40
2017-09-30T19:53:41.922Z,5.93
2017-09-30T19:56:09.331Z,6.50
2017-09-30T19:58:37.517Z,4.93
2017-09-30T20:01:05.696Z,8.10
2017-09-30T20:03:33.877Z,9.60
2017-09-30T20:06:01.298Z,8.23
2017-09-30T20:08:28.712Z,8.47
2017-09-30T20:10:56.129Z,8.17
2017-09-30T20:13:24.307Z,7.03
2017-09-30T20:15:52.494Z,6.93
2017-09-30T20:18:19.917Z,12.60
2017-09-30T20:20:47.343Z,7.33
2017-09-30T20:23:14.761Z,9.93
2017-09-30T20:25:42.176Z,8.37
2017-09-30T20:28:09.585Z,6.90
2017-09-30T20:30:36.990Z,8.53
2017-09-30T20:33:04.407Z,9.27
2017-09-30T20:35:31.830Z,12.77
2017-09-30T20:38:00.007Z,10.00
2017-09-30T20:40:28.202Z,13.20
2017-09-30T20:42:55.607Z,8.47
2017-09-30T20:45:23.038Z,9.03
2017-09-30T20:47:50.442Z,9.33
2017-09-30T20:50:18.622Z,8.20
2017-09-30T20:52:46.165Z,9.27
2017-09-30T20:55:14.384Z,9.60
2017-09-30T20:57:41.792Z,11.20
2017-09-30T21:00:09.970Z,10.70
2017-09-30T21:02:38.155Z,9.90
2017-09-30T21:05:06.339Z,8.30
2017-09-30T21:07:33.753Z,12.90
2017-09-30T21:10:01.172Z,10.90
2017-09-30T21:12:29.207Z,9.93
2017-09-30T21:14:56.614Z,13.90
2017-09-30T21:17:24.037Z,9.17
2017-09-30T21:19:51.454Z,9.00
2017-09-30T21:22:18.867Z,9.57
2017-09-30T21:24:46.739Z,10.10
2017-09-30T21:27:14.157Z,10.40
2017-09-30T21:29:42.332Z,11.90
2017-09-30T21:32:10.509Z,11.10
2017-09-30T21:34:38.692Z,8.50
2017-09-30T21:37:06.109Z,9.10
2017-09-30T21:39:33.522Z,13.13
2017-09-30T21:42:00.945Z,11.83
2017-09-30T21:44:29.126Z,9.70
2017-09-30T21:46:57.305Z,12.03
2017-09-30T21:49:25.481Z,15.53
2017-09-30T21:51:52.901Z,9.40
2017-09-30T21:54:20.319Z,7.60
2017-09-30T21:56:47.733Z,10.07
2017-09-30T21:59:15.918Z,7.20
2017-09-30T22:01:44.094Z,9.70
2017-09-30T22:04:12.274Z,10.23
2017-09-30T22:06:39.681Z,8.30
2017-09-30T22:09:07.109Z,13.93
2017-09-30T22:11:34.513Z,11.90
2017-09-30T22:14:02.706Z,13.50
2017-09-30T22:16:30.885Z,9.47
2017-09-30T22:18:58.358Z,10.43
2017-09-30T22:21:25.771Z,9.57
2017-09-30T22:23:53.201Z,11.13
2017-09-30T22:26:20.659Z,9.90
2017-09-30T22:28:48.054Z,10.57
2017-09-30T22:31:16.242Z,8.53
2017-09-30T22:33:43.649Z,18.10
2017-09-30T22:36:11.078Z,9.47
2017-09-30T22:38:38.497Z,11.37
2017-09-30T22:41:06.686Z,14.87
2017-09-30T22:43:34.102Z,11.63
2017-09-30T22:46:01.520Z,17.90
2017-09-30T22:48:28.952Z,11.90
2017-09-30T22:50:57.137Z,9.67
2017-09-30T22:53:24.541Z,13.10
2017-09-30T22:55:51.958Z,12.60
2017-09-30T22:58:19.373Z,11.17
2017-09-30T23:00:47.554Z,8.90
2017-09-30T23:03:15.750Z,12.20
2017-09-30T23:05:43.157Z,16.60
2017-09-30T23:08:11.343Z,11.10
2017-09-30T23:10:38.756Z,15.20
2017-09-30T23:13:06.182Z,10.87
2017-09-30T23:15:34.358Z,9.57
2017-09-30T23:18:01.783Z,19.43
2017-09-30T23:20:29.195Z,15.30
2017-09-30T23:22:56.609Z,17.30
2017-09-30T23:25:24.797Z,15.17
2017-09-30T23:27:52.225Z,12.70
2017-09-30T23:30:19.637Z,13.90
2017-09-30T23:32:47.039Z,11.83
2017-09-30T23:35:14.472Z,12.40
2017-09-30T23:37:41.890Z,12.63
2017-09-30T23:40:09.319Z,12.10
2017-09-30T23:42:37.498Z,14.80
2017-09-30T23:45:05.688Z,15.73
2017-09-30T23:47:33.102Z,14.27
2017-09-30T23:50:00.529Z,16.33
2017-09-30T23:52:27.934Z,17.63
2017-09-30T23:54:56.132Z,15.63
2017-09-30T23:57:23.546Z,17.40
2017-09-30T23:59:50.975Z,14.00
